Time;durP1;ratioP1;P1;durP2;ratioP2;P2;SDS_P1;SDS_P2;PMS_P1;PMS_P2;Temp;Humidity;BMP_temperature;BMP_pressure;BME280_temperature;BME280_humidity;BME280_pressure;Samples;Min_cycle;Max_cycle;Signal;HPM_P1;HPM_P2
2023/05/04 00:02:05;;;;;;;15.90;8.10;;;;;;;8.12;45.01;101068.42;103168;1257;137667;-74
2023/05/04 00:04:54;;;;;;;20.10;8.60;;;;;;;8.10;45.14;101068.98;103005;1257;107022;-74
2023/05/04 00:07:25;;;;;;;14.80;8.00;;;;;;;8.08;45.19;101063.62;102895;1260;137832;-74
2023/05/04 00:10:01;;;;;;;15.80;8.00;;;;;;;8.05;45.22;101062.41;103053;1260;111448;-74
2023/05/04 00:12:37;;;;;;;21.00;8.60;;;;;;;8.03;45.39;101064.69;102817;1260;138671;-74
2023/05/04 00:15:09;;;;;;;14.50;8.30;;;;;;;8.00;45.47;101065.76;103068;1257;97695;-74
2023/05/04 00:17:39;;;;;;;16.90;8.90;;;;;;;7.98;45.62;101061.45;102992;1261;106520;-75
2023/05/04 00:20:22;;;;;;;17.70;8.00;;;;;;;7.96;45.67;101061.83;103005;1261;97782;-74
2023/05/04 00:23:12;;;;;;;15.70;8.50;;;;;;;7.92;45.71;101065.31;102946;1260;111483;-75
2023/05/04 00:25:59;;;;;;;;;;;;;;;7.89;45.88;101063.41;102850;1260;137901;-75
2023/05/04 00:28:38;;;;;;;15.70;8.60;;;;;;;7.87;46.03;101068.45;103011;1260;98115;-75
2023/05/04 00:31:18;;;;;;;12.90;8.20;;;;;;;7.83;46.06;101067.27;102909;1257;137626;-75
2023/05/04 00:34:06;;;;;;;19.50;9.50;;;;;;;7.82;46.27;101068.67;102964;1258;97668;-74
2023/05/04 00:36:53;;;;;;;17.90;8.70;;;;;;;7.80;46.50;101067.65;103233;1257;137546;-74
2023/05/04 00:39:25;;;;;;;18.50;9.30;;;;;;;7.76;46.61;101066.14;103342;1254;106942;-74
2023/05/04 00:42:00;;;;;;;17.50;9.00;;;;;;;7.73;46.86;101067.37;103403;1254;137784;-74
2023/05/04 00:44:46;;;;;;;;;;;;;;;7.70;47.00;101067.02;103437;1256;107498;-73
2023/05/04 00:47:15;;;;;;;20.20;9.30;;;;;;;7.67;47.25;101068.77;103360;1257;98183;-73
2023/05/04 00:49:53;;;;;;;20.60;9.30;;;;;;;7.64;47.57;101069.85;103347;1253;137469;-73
2023/05/04 00:52:30;;;;;;;20.70;9.90;;;;;;;7.61;47.71;101068.31;103373;1253;107546;-73
2023/05/04 00:55:13;;;;;;;21.10;9.20;;;;;;;7.55;48.10;101069.39;103351;1254;137763;-73
2023/05/04 00:57:43;;;;;;;15.80;9.50;;;;;;;7.51;48.14;101070.10;103415;1256;107444;-73
2023/05/04 01:00:12;;;;;;;21.90;10.00;;;;;;;7.46;48.22;101067.72;103309;1254;138510;-73
2023/05/04 01:02:53;;;;;;;21.00;9.60;;;;;;;7.43;48.52;101069.65;103558;1256;110685;-73
2023/05/04 01:05:27;;;;;;;23.40;9.60;;;;;;;7.39;48.65;101068.29;103391;1251;105595;-73
2023/05/04 01:08:04;;;;;;;20.40;9.90;;;;;;;7.36;48.80;101070.71;103200;1253;137959;-73
2023/05/04 01:10:43;;;;;;;15.60;9.80;;;;;;;7.33;48.92;101070.04;103480;1253;106928;-73
2023/05/04 01:13:12;;;;;;;17.50;9.90;;;;;;;7.29;49.01;101069.55;103269;1257;137866;-73
2023/05/04 01:15:46;;;;;;;21.30;9.60;;;;;;;7.24;49.34;101071.14;103437;1256;111063;-73
2023/05/04 01:18:33;;;;;;;17.10;9.20;;;;;;;7.18;49.67;101070.81;103300;1256;137750;-73
2023/05/04 01:21:20;;;;;;;18.50;9.80;;;;;;;7.11;49.80;101070.16;103376;1254;97887;-73
2023/05/04 01:24:01;;;;;;;15.80;9.60;;;;;;;7.03;49.99;101066.92;103373;1256;138150;-73
2023/05/04 01:26:42;;;;;;;18.50;9.40;;;;;;;7.00;50.14;101063.47;103490;1253;97871;-73
2023/05/04 01:29:30;;;;;;;18.40;9.60;;;;;;;6.96;50.22;101065.38;103366;1254;110826;-73
2023/05/04 01:32:04;;;;;;;18.70;9.30;;;;;;;6.92;50.29;101072.50;103212;1257;137662;-74
2023/05/04 01:34:52;;;;;;;16.40;9.30;;;;;;;6.87;50.52;101072.69;103295;1254;98262;-73
2023/05/04 01:37:28;;;;;;;13.30;9.10;;;;;;;6.85;50.72;101072.52;103209;1253;137602;-73
2023/05/04 01:40:08;;;;;;;17.90;9.10;;;;;;;6.82;50.79;101072.02;103314;1254;97815;-73
2023/05/04 01:42:41;;;;;;;14.30;8.90;;;;;;;6.79;51.02;101070.29;103490;1253;138163;-73
2023/05/04 01:45:21;;;;;;;17.60;9.40;;;;;;;6.75;51.10;101067.55;103265;1257;108414;-73
2023/05/04 01:48:01;;;;;;;15.90;10.10;;;;;;;6.70;51.19;101067.91;103164;1254;137737;-73
2023/05/04 01:50:38;;;;;;;14.40;9.10;;;;;;;6.66;51.52;101062.22;103305;1254;108042;-73
2023/05/04 01:53:25;;;;;;;17.60;9.20;;;;;;;6.59;51.61;101060.33;103289;1257;97771;-73
2023/05/04 01:55:55;;;;;;;19.60;9.90;;;;;;;6.56;51.86;101059.98;103208;1258;137540;-73
2023/05/04 01:58:42;;;;;;;18.90;9.80;;;;;;;6.53;51.95;101064.33;103276;1253;108421;-74
2023/05/04 02:01:22;;;;;;;15.80;9.90;;;;;;;6.49;51.81;101057.44;103327;1256;137806;-73
2023/05/04 02:04:10;;;;;;;15.90;9.50;;;;;;;6.46;52.21;101059.67;103448;1256;107724;-73
2023/05/04 02:06:56;;;;;;;14.90;9.50;;;;;;;6.42;52.49;101061.58;103352;1253;138136;-73
2023/05/04 02:09:42;;;;;;;;;;;;;;;6.39;52.60;101061.41;103302;1253;111174;-74
2023/05/04 02:12:29;;;;;;;15.60;9.60;;;;;;;6.34;52.96;101064.37;103174;1253;124077;-73
2023/05/04 02:15:16;;;;;;;;;;;;;;;6.32;53.10;101066.97;103184;1256;97807;-73
2023/05/04 02:18:03;;;;;;;16.30;9.90;;;;;;;6.27;53.20;101062.83;103320;1253;123867;-74
2023/05/04 02:20:41;;;;;;;18.50;10.80;;;;;;;6.25;53.36;101064.36;103498;1253;97935;-74
2023/05/04 02:23:21;;;;;;;18.90;10.70;;;;;;;6.23;53.34;101064.02;103550;1252;110484;-74
2023/05/04 02:25:58;;;;;;;18.00;11.70;;;;;;;6.20;53.32;101065.42;103206;1256;137728;-74
2023/05/04 02:28:28;;;;;;;16.60;10.80;;;;;;;6.18;53.65;101063.88;103321;1252;97884;-74
2023/05/04 02:30:55;;;;;;;17.20;10.90;;;;;;;6.15;53.57;101064.92;103194;1253;137745;-74
2023/05/04 02:33:23;;;;;;;17.30;11.60;;;;;;;6.11;53.81;101066.65;103318;1257;97779;-74
2023/05/04 02:36:00;;;;;;;23.40;11.80;;;;;;;6.09;53.87;101066.80;103267;1253;139147;-73
2023/05/04 02:38:45;;;;;;;;;;;;;;;6.06;54.15;101069.05;103322;1253;107444;-73
2023/05/04 02:41:25;;;;;;;23.30;12.40;;;;;;;6.03;54.25;101071.65;103384;1253;98508;-74
2023/05/04 02:44:06;;;;;;;18.00;11.60;;;;;;;6.02;54.39;101070.96;103215;1254;138412;-73
2023/05/04 02:46:49;;;;;;;22.30;13.40;;;;;;;6.02;54.56;101064.91;103289;1257;97763;-73
2023/05/04 02:49:37;;;;;;;26.60;13.90;;;;;;;6.00;54.65;101063.54;102986;1253;138739;-73
2023/05/04 02:52:15;;;;;;;20.90;13.60;;;;;;;6.00;54.69;101064.58;103064;1257;107612;-74
2023/05/04 02:54:52;;;;;;;20.90;13.20;;;;;;;6.00;54.75;101062.16;103248;1253;138506;-73
2023/05/04 02:57:39;;;;;;;25.20;14.10;;;;;;;6.00;54.81;101059.40;103257;1257;107317;-73
2023/05/04 03:00:19;;;;;;;20.10;12.50;;;;;;;6.01;54.91;101061.13;103206;1253;138624;-73
2023/05/04 03:02:56;;;;;;;23.90;13.40;;;;;;;6.01;55.24;101063.54;103415;1254;111263;-74
2023/05/04 03:05:24;;;;;;;21.20;13.10;;;;;;;6.01;55.30;101062.16;103152;1257;108087;-74
2023/05/04 03:08:04;;;;;;;18.60;12.20;;;;;;;6.02;55.41;101062.16;103120;1254;138452;-74
2023/05/04 03:10:52;;;;;;;24.30;12.70;;;;;;;6.02;55.36;101067.68;103191;1253;107642;-75
2023/05/04 03:13:22;;;;;;;20.40;12.40;;;;;;;6.04;55.36;101070.96;103107;1256;138708;-74
2023/05/04 03:16:01;;;;;;;21.00;12.70;;;;;;;6.06;55.28;101068.02;103163;1253;110936;-73
2023/05/04 03:18:30;;;;;;;20.70;12.90;;;;;;;6.09;55.46;101067.66;103087;1253;139405;-74
2023/05/04 03:21:26;;;;;;;22.50;13.50;;;;;;;6.13;55.53;101068.73;103423;1253;98470;-74
2023/05/04 03:24:11;;;;;;;;;;;;;;;6.16;55.54;101065.60;103326;1253;138550;-73
2023/05/04 03:26:38;;;;;;;21.40;12.80;;;;;;;6.18;55.39;101066.12;103295;1253;97821;-75
2023/05/04 03:29:09;;;;;;;19.50;13.20;;;;;;;6.21;55.09;101066.29;103209;1253;111270;-76
2023/05/04 03:31:56;;;;;;;21.10;12.30;;;;;;;6.26;55.14;101064.20;103173;1253;138750;-75
2023/05/04 03:34:44;;;;;;;25.90;12.70;;;;;;;6.31;54.92;101066.63;103262;1253;97858;-75
2023/05/04 03:37:12;;;;;;;20.10;12.50;;;;;;;6.35;55.15;101061.08;103176;1253;138459;-74
2023/05/04 03:39:42;;;;;;;20.10;13.10;;;;;;;6.41;55.01;101064.70;103305;1252;97858;-75
2023/05/04 03:42:29;;;;;;;22.10;13.10;;;;;;;6.47;55.03;101067.45;103219;1253;138531;-74
2023/05/04 03:44:59;;;;;;;26.50;13.70;;;;;;;6.52;54.93;101063.30;103221;1255;108204;-74
2023/05/04 03:47:40;;;;;;;25.00;14.80;;;;;;;6.60;55.10;101065.16;103297;1253;97778;-74
2023/05/04 03:50:27;;;;;;;22.60;13.80;;;;;;;6.67;54.98;101066.36;103242;1254;110004;-72
2023/05/04 03:53:07;;;;;;;23.70;13.90;;;;;;;6.74;54.68;101063.92;103217;1257;97813;-75
2023/05/04 03:55:45;;;;;;;22.90;14.20;;;;;;;6.83;54.68;101072.02;103255;1252;139884;-72
2023/05/04 03:58:32;;;;;;;19.80;13.20;;;;;;;6.90;54.58;101069.73;103374;1253;108775;-75
2023/05/04 04:01:08;;;;;;;20.60;13.00;;;;;;;6.99;54.47;101071.60;103314;1253;138581;-75
2023/05/04 04:03:56;;;;;;;21.90;12.60;;;;;;;7.10;54.40;101067.73;103446;1256;108525;-75
2023/05/04 04:06:33;;;;;;;22.30;13.30;;;;;;;7.19;54.28;101069.95;103391;1253;139176;-75
2023/05/04 04:08:59;;;;;;;19.20;12.80;;;;;;;7.29;54.04;101071.11;103479;1253;111373;-75
2023/05/04 04:11:29;;;;;;;20.60;12.80;;;;;;;7.38;54.09;101073.65;103454;1253;109035;-75
2023/05/04 04:14:06;;;;;;;20.20;12.80;;;;;;;7.48;53.93;101075.66;103258;1253;137788;-75
2023/05/04 04:16:33;;;;;;;20.50;13.00;;;;;;;7.57;53.89;101078.20;103289;1252;107206;-75
2023/05/04 04:19:05;;;;;;;22.10;13.50;;;;;;;7.67;53.88;101074.14;103292;1256;137803;-75
2023/05/04 04:21:32;;;;;;;23.30;13.20;;;;;;;7.78;53.64;101076.84;103362;1256;111065;-70
2023/05/04 04:24:20;;;;;;;21.50;14.20;;;;;;;7.90;53.60;101078.30;103215;1256;138156;-73
2023/05/04 04:26:52;;;;;;;21.90;13.90;;;;;;;8.01;53.54;101083.23;103380;1253;97889;-75
2023/05/04 04:29:43;;;;;;;23.00;14.00;;;;;;;8.17;53.25;101083.80;103074;1254;109046;-73
2023/05/04 04:32:21;;;;;;;22.40;13.80;;;;;;;8.34;53.12;101086.60;103147;1253;137638;-73
2023/05/04 04:34:51;;;;;;;27.70;14.40;;;;;;;8.53;53.03;101088.17;103320;1253;111817;-73
2023/05/04 04:37:18;;;;;;;22.70;14.80;;;;;;;8.72;52.79;101089.69;103174;1252;137850;-66
2023/05/04 04:39:45;;;;;;;26.40;14.40;;;;;;;8.92;52.38;101087.20;103295;1257;97814;-69
2023/05/04 04:42:14;;;;;;;23.90;14.60;;;;;;;9.14;52.11;101083.81;103222;1253;138508;-70
2023/05/04 04:44:48;;;;;;;26.70;14.40;;;;;;;9.35;51.84;101080.58;103273;1254;98344;-70
2023/05/04 04:47:16;;;;;;;23.40;14.60;;;;;;;9.56;51.48;101082.35;103338;1253;111488;-71
2023/05/04 04:49:44;;;;;;;21.90;13.20;;;;;;;9.77;51.23;101076.48;103178;1253;138907;-72
2023/05/04 04:52:31;;;;;;;;;;;;;;;10.05;50.93;101079.67;103488;1253;97668;-70
2023/05/04 04:55:12;;;;;;;21.40;13.10;;;;;;;10.34;50.79;101075.38;103196;1257;124399;-70
2023/05/04 04:57:40;;;;;;;23.80;14.10;;;;;;;10.76;50.75;101076.14;103303;1256;97755;-71
2023/05/04 05:00:09;;;;;;;22.50;13.40;;;;;;;11.97;50.35;101067.67;103131;1253;138211;-70
2023/05/04 05:02:39;;;;;;;19.70;12.70;;;;;;;14.26;48.60;101064.42;103178;1257;108376;-71
2023/05/04 05:05:11;;;;;;;20.80;13.80;;;;;;;16.66;45.88;101057.45;103226;1254;97708;-72
2023/05/04 05:07:42;;;;;;;19.90;12.80;;;;;;;18.82;42.90;101049.01;103380;1256;138009;-72
2023/05/04 05:10:11;;;;;;;26.20;13.30;;;;;;;20.74;40.25;101042.58;103333;1251;97807;-72
2023/05/04 05:12:38;;;;;;;20.40;12.80;;;;;;;22.43;37.53;101040.73;103805;1253;139828;-71
2023/05/04 05:15:13;;;;;;;20.90;12.60;;;;;;;24.00;35.29;101033.46;103244;1253;107375;-71
2023/05/04 05:17:42;;;;;;;20.60;13.00;;;;;;;25.54;33.07;101033.94;103161;1253;98182;-70
2023/05/04 05:20:11;;;;;;;22.40;13.70;;;;;;;26.78;31.08;101034.29;103056;1253;138191;-72
2023/05/04 05:22:38;;;;;;;21.50;13.30;;;;;;;27.96;29.52;101027.86;103322;1253;97822;-72
2023/05/04 05:25:07;;;;;;;19.90;13.40;;;;;;;28.96;28.15;101026.95;103177;1257;138991;-73
2023/05/04 05:27:34;;;;;;;18.50;12.30;;;;;;;29.91;26.98;101027.23;103218;1257;107135;-72
2023/05/04 05:30:02;;;;;;;19.30;11.90;;;;;;;30.71;25.56;101029.92;103205;1253;97823;-73
2023/05/04 05:32:30;;;;;;;19.00;12.70;;;;;;;31.49;24.52;101027.19;103224;1253;107994;-73
2023/05/04 05:34:57;;;;;;;18.30;12.50;;;;;;;32.14;23.43;101025.02;103341;1253;97678;-74
2023/05/04 05:37:25;;;;;;;16.80;12.10;;;;;;;32.72;22.63;101025.34;103299;1256;137905;-72
2023/05/04 05:39:52;;;;;;;21.20;12.00;;;;;;;33.41;21.94;101023.40;103360;1253;100021;-72
2023/05/04 05:42:19;;;;;;;20.60;11.70;;;;;;;34.04;21.15;101021.71;103344;1253;138214;-72
2023/05/04 05:44:45;;;;;;;18.40;11.80;;;;;;;34.58;20.61;101023.15;103239;1252;100391;-72
2023/05/04 05:47:12;;;;;;;18.10;11.50;;;;;;;35.09;19.81;101021.76;103313;1256;97778;-72
2023/05/04 05:49:40;;;;;;;15.90;11.20;;;;;;;35.54;19.27;101019.66;103233;1256;137946;-72
2023/05/04 05:52:12;;;;;;;17.30;11.80;;;;;;;36.06;18.74;101021.43;103248;1253;99960;-72
2023/05/04 05:54:44;;;;;;;17.90;12.00;;;;;;;36.53;18.23;101020.36;103230;1254;138132;-71
2023/05/04 05:57:13;;;;;;;12.80;10.60;;;;;;;36.97;17.53;101021.27;103228;1253;99520;-72
2023/05/04 05:59:43;;;;;;;15.70;10.60;;;;;;;37.34;17.03;101015.92;103223;1253;97700;-71
2023/05/04 06:02:13;;;;;;;14.50;10.60;;;;;;;37.76;16.53;101012.70;103236;1253;138514;-70
2023/05/04 06:04:47;;;;;;;15.70;9.60;;;;;;;38.04;15.93;101011.23;103250;1256;100216;-71
2023/05/04 06:07:14;;;;;;;17.60;9.20;;;;;;;38.39;15.54;101013.27;103161;1253;137897;-71
2023/05/04 06:09:42;;;;;;;16.20;11.00;;;;;;;38.65;15.28;101012.41;103146;1256;100289;-71
2023/05/04 06:12:12;;;;;;;15.70;10.00;;;;;;;39.02;14.98;101011.14;101177;1253;2756531;-72
2023/05/04 06:14:42;;;;;;;16.70;10.80;;;;;;;39.22;14.74;101006.61;103424;1256;103776;-72
2023/05/04 06:17:10;;;;;;;14.50;10.40;;;;;;;39.51;14.35;101008.05;103385;1256;100185;-71
2023/05/04 06:19:38;;;;;;;13.80;9.50;;;;;;;39.77;14.32;101008.88;103180;1257;137986;-72
2023/05/04 06:22:05;;;;;;;11.40;9.70;;;;;;;39.75;13.86;101010.00;103237;1252;99351;-72
2023/05/04 06:24:33;;;;;;;14.90;10.00;;;;;;;39.89;13.47;101007.70;103167;1253;137794;-72
2023/05/04 06:27:02;;;;;;;15.70;9.90;;;;;;;40.09;13.33;101007.71;103225;1254;103444;-80
2023/05/04 06:29:32;;;;;;;14.40;9.60;;;;;;;40.20;13.23;101007.89;103310;1253;98974;-74
2023/05/04 06:32:00;;;;;;;15.60;9.40;;;;;;;40.15;12.81;101009.16;103308;1252;138596;-73
2023/05/04 06:34:28;;;;;;;10.40;8.90;;;;;;;40.35;12.45;101010.19;103314;1254;98793;-73
2023/05/04 06:36:59;;;;;;;12.50;9.20;;;;;;;40.60;12.53;101009.79;102963;1256;137639;-72
2023/05/04 06:39:27;;;;;;;15.70;9.30;;;;;;;40.87;12.43;101012.84;103282;1253;102636;-72
2023/05/04 06:42:03;;;;;;;15.00;9.90;;;;;;;40.96;12.38;101011.73;103110;1253;100464;-72
2023/05/04 06:44:39;;;;;;;13.00;9.80;;;;;;;41.03;12.09;101013.02;103090;1260;98446;-72
2023/05/04 06:47:07;;;;;;;15.80;9.40;;;;;;;41.23;11.81;101015.10;103313;1253;100664;-72
2023/05/04 06:49:35;;;;;;;17.40;10.10;;;;;;;41.30;11.60;101016.23;103172;1253;138091;-72
2023/05/04 06:52:02;;;;;;;16.90;11.40;;;;;;;41.04;11.53;101014.30;103334;1253;103761;-72
2023/05/04 06:54:30;;;;;;;16.30;10.90;;;;;;;40.82;11.43;101012.69;103226;1257;137575;-72
2023/05/04 06:56:57;;;;;;;16.10;10.90;;;;;;;40.67;11.57;101007.43;103747;1253;97807;-72
2023/05/04 06:59:24;;;;;;;22.70;12.00;;;;;;;40.60;11.49;101011.21;103419;1253;107889;-72
2023/05/04 07:01:51;;;;;;;18.50;11.70;;;;;;;40.85;11.74;101012.88;103112;1256;137943;-72
2023/05/04 07:04:21;;;;;;;15.40;11.10;;;;;;;40.96;11.57;101014.51;103281;1257;103744;-75
2023/05/04 07:06:49;;;;;;;20.50;11.60;;;;;;;40.94;11.21;101015.66;103111;1253;139125;-73
2023/05/04 07:09:18;;;;;;;19.10;11.10;;;;;;;40.67;11.06;101011.43;103722;1256;138536;-73
2023/05/04 07:11:47;;;;;;;17.60;11.00;;;;;;;40.56;10.95;101015.73;103417;1258;98955;-72
2023/05/04 07:14:14;;;;;;;16.60;9.70;;;;;;;40.48;11.14;101018.66;103051;1254;138566;-73
2023/05/04 07:16:41;;;;;;;17.40;10.20;;;;;;;40.13;10.80;101016.06;103189;1254;103934;-72
2023/05/04 07:19:09;;;;;;;13.60;8.90;;;;;;;39.79;10.85;101019.59;103070;1258;100159;-73
2023/05/04 07:21:37;;;;;;;12.30;7.70;;;;;;;39.65;10.75;101018.02;103083;1254;139356;-72
2023/05/04 07:24:05;;;;;;;11.30;6.70;;;;;;;39.56;11.19;101017.24;103143;1254;100184;-72
2023/05/04 07:26:32;;;;;;;16.50;7.20;;;;;;;39.63;10.69;101014.08;103212;1258;138056;-71
2023/05/04 07:29:00;;;;;;;13.40;6.60;;;;;;;39.57;10.60;101012.70;103227;1254;103767;-71
2023/05/04 07:31:27;;;;;;;14.70;6.10;;;;;;;39.73;10.88;101016.23;103133;1255;100224;-71
2023/05/04 07:33:56;;;;;;;14.70;5.90;;;;;;;39.90;10.61;101018.60;103137;1255;138531;-73
2023/05/04 07:36:25;;;;;;;9.70;4.90;;;;;;;39.91;10.64;101019.87;103252;1253;100302;-71
2023/05/04 07:38:52;;;;;;;10.10;5.50;;;;;;;39.75;10.35;101016.20;103009;1258;137617;-72
2023/05/04 07:41:19;;;;;;;10.50;5.00;;;;;;;39.16;10.27;101019.99;103208;1254;111467;-71
2023/05/04 07:43:46;;;;;;;11.10;4.80;;;;;;;38.90;10.45;101017.73;103060;1258;99910;-71
2023/05/04 07:46:14;;;;;;;10.50;4.70;;;;;;;38.99;10.41;101013.50;103075;1257;137445;-71
2023/05/04 07:48:41;;;;;;;7.50;4.20;;;;;;;38.90;10.24;101015.84;103243;1254;100269;-71
2023/05/04 07:51:14;;;;;;;6.20;3.50;;;;;;;38.63;10.19;101015.51;103061;1254;139350;-71
2023/05/04 07:53:41;;;;;;;7.40;3.40;;;;;;;38.32;10.08;101016.08;103089;1255;103820;-70
2023/05/04 07:56:13;;;;;;;7.80;3.00;;;;;;;38.15;10.38;101010.18;103090;1258;139158;-71
2023/05/04 07:58:40;;;;;;;6.40;3.20;;;;;;;38.12;10.19;101009.23;103232;1258;97821;-71
